Time;durP1;ratioP1;P1;durP2;ratioP2;P2;SDS_P1;SDS_P2;PMS_P1;PMS_P2;Temp;Humidity;BMP_temperature;BMP_pressure;BME280_temperature;BME280_humidity;BME280_pressure;Samples;Min_cycle;Max_cycle;Signal;HPM_P1;HPM_P2
2023/03/09 00:00:25;;;;;;;2.10;1.90;;;;;;;-155.45;100.00;62915.69;10397217;28;20739;-61
2023/03/09 00:05:27;;;;;;;2.50;1.90;;;;;;;-155.45;100.00;62915.69;10396699;28;20220;-61
2023/03/09 00:10:29;;;;;;;2.30;2.10;;;;;;;-155.45;100.00;62915.69;10405045;28;21195;-61
2023/03/09 00:15:30;;;;;;;2.10;2.00;;;;;;;-155.45;100.00;62915.69;10405564;28;20352;-61
2023/03/09 00:20:32;;;;;;;2.80;1.80;;;;;;;-155.45;100.00;62915.69;10411472;28;20647;-61
2023/03/09 00:25:34;;;;;;;2.07;1.83;;;;;;;7.01;nan;97178.94;10415926;28;20224;-61
2023/03/09 00:30:36;;;;;;;2.37;2.07;;;;;;;8.97;nan;97002.94;10397744;28;20327;-60
2023/03/09 00:35:38;;;;;;;2.00;1.87;;;;;;;9.60;nan;97016.97;10414985;28;20721;-61
2023/03/09 00:40:40;;;;;;;3.10;1.90;;;;;;;10.32;nan;97005.34;10402733;28;20314;-60
2023/03/09 00:45:41;;;;;;;2.00;1.90;;;;;;;10.72;nan;97066.75;10409257;28;20418;-61
2023/03/09 00:50:43;;;;;;;1.80;1.70;;;;;;;11.23;nan;97099.38;10402626;28;20228;-60
2023/03/09 00:55:45;;;;;;;1.97;1.87;;;;;;;11.78;nan;97090.19;10401681;28;20738;-60
2023/03/09 01:00:47;;;;;;;2.00;1.80;;;;;;;11.48;nan;97133.59;10402090;28;20241;-61
2023/03/09 01:05:49;;;;;;;2.50;2.30;;;;;;;12.99;nan;97139.56;10415005;28;20274;-60
2023/03/09 01:10:51;;;;;;;3.30;1.83;;;;;;;12.10;nan;97193.84;10401054;28;20774;-60
2023/03/09 01:15:52;;;;;;;2.33;2.20;;;;;;;12.93;nan;97208.53;10398348;28;20244;-61
2023/03/09 01:20:54;;;;;;;2.47;1.70;;;;;;;12.90;nan;97258.16;10413997;28;20260;-60
2023/03/09 01:25:56;;;;;;;2.40;2.20;;;;;;;13.06;nan;97236.78;10403756;28;20259;-60
2023/03/09 01:30:58;;;;;;;2.20;1.80;;;;;;;11.97;nan;97309.53;10413352;28;20269;-61
2023/03/09 01:36:03;;;;;;;2.23;1.80;;;;;;;12.98;nan;97261.44;10417122;28;20264;-60
2023/03/09 01:41:05;;;;;;;2.20;2.00;;;;;;;13.13;nan;97320.56;10395764;28;20229;-60
2023/03/09 01:46:24;;;;;;;2.30;1.63;;;;;;;12.90;nan;97297.63;10401519;28;20399;-61
2023/03/09 01:51:36;;;;;;;2.07;1.67;;;;;;;12.18;nan;97334.63;10409508;28;20227;-61
2023/03/09 01:56:40;;;;;;;1.50;1.40;;;;;;;13.00;nan;97303.03;10398325;28;20320;-61
2023/03/09 02:01:44;;;;;;;1.50;1.40;;;;;;;12.39;nan;97356.28;10403797;28;20265;-61
2023/03/09 02:06:46;;;;;;;2.03;1.50;;;;;;;13.14;nan;97294.53;10399652;28;20329;-61
2023/03/09 02:11:48;;;;;;;1.87;1.70;;;;;;;12.89;nan;97333.56;10388823;28;20263;-61
2023/03/09 02:16:50;;;;;;;2.07;1.97;;;;;;;12.44;nan;97367.84;10397088;28;20257;-60
2023/03/09 02:21:54;;;;;;;2.10;1.73;;;;;;;11.81;nan;97447.88;10401504;28;20256;-61
2023/03/09 02:27:02;;;;;;;3.43;1.70;;;;;;;11.57;nan;97527.63;10397103;28;20232;-61
2023/03/09 02:32:04;;;;;;;2.37;1.70;;;;;;;11.74;nan;97445.41;10405254;28;20315;-60
2023/03/09 02:37:35;;;;;;;2.83;1.77;;;;;;;13.38;nan;97445.31;10406747;28;20727;-60
2023/03/09 02:42:38;;;;;;;2.47;2.20;;;;;;;12.08;nan;97570.44;10398504;28;20228;-65
2023/03/09 02:47:40;;;;;;;2.00;1.90;;;;;;;12.44;nan;97570.91;10412091;28;20275;-60
2023/03/09 02:52:41;;;;;;;1.70;1.60;;;;;;;13.71;nan;97529.34;10400065;28;20335;-61
2023/03/09 02:57:43;;;;;;;1.83;1.50;;;;;;;12.65;nan;97601.47;10403105;28;20274;-61
2023/03/09 03:02:45;;;;;;;2.00;1.80;;;;;;;11.60;nan;97659.22;10405901;28;20313;-61
2023/03/09 03:07:47;;;;;;;1.70;1.60;;;;;;;12.07;nan;97599.13;10398616;28;20280;-61
2023/03/09 03:12:48;;;;;;;2.23;1.70;;;;;;;11.61;nan;97690.31;10395884;28;20264;-60
2023/03/09 03:17:50;;;;;;;1.90;1.80;;;;;;;12.31;nan;97631.06;10403216;28;20317;-61
2023/03/09 03:22:53;;;;;;;2.10;2.00;;;;;;;12.53;nan;97647.19;10394645;28;20285;-61
2023/03/09 03:27:54;;;;;;;2.83;2.20;;;;;;;11.85;nan;97686.72;10377391;28;20297;-61
2023/03/09 03:32:56;;;;;;;2.67;1.80;;;;;;;12.51;nan;97711.03;10399490;28;20472;-61
2023/03/09 03:37:58;;;;;;;2.63;2.43;;;;;;;12.62;nan;97718.16;10406714;28;20255;-61
2023/03/09 03:42:59;;;;;;;5.23;2.43;;;;;;;13.01;nan;97706.53;10391208;28;20285;-61
2023/03/09 03:48:01;;;;;;;2.20;2.00;;;;;;;12.91;nan;97729.53;10406061;28;20319;-60
2023/03/09 03:53:04;;;;;;;3.60;1.90;;;;;;;13.23;nan;97726.13;10406714;28;20264;-61
2023/03/09 03:58:06;;;;;;;3.37;2.40;;;;;;;11.76;nan;97793.44;10404209;28;20240;-61
2023/03/09 04:03:07;;;;;;;3.10;2.10;;;;;;;12.38;nan;97776.53;10380338;28;20252;-60
2023/03/09 04:08:09;;;;;;;5.03;2.60;;;;;;;12.16;nan;97812.13;10354007;28;20746;-60
2023/03/09 04:13:11;;;;;;;4.47;2.30;;;;;;;13.25;nan;97801.88;10401983;28;20313;-61
2023/03/09 04:18:13;;;;;;;2.53;2.30;;;;;;;13.47;nan;97836.03;10411393;28;20346;-60
2023/03/09 04:23:15;;;;;;;4.53;2.27;;;;;;;13.43;nan;97832.19;10408476;28;20712;-60
2023/03/09 04:28:17;;;;;;;4.70;2.43;;;;;;;13.62;nan;97863.06;10401275;28;20278;-61
2023/03/09 04:33:19;;;;;;;2.70;2.37;;;;;;;12.54;nan;97880.34;10397091;28;20515;-65
2023/03/09 04:38:21;;;;;;;5.97;2.30;;;;;;;12.73;nan;97928.41;10410715;28;20311;-60
2023/03/09 04:43:22;;;;;;;4.53;2.87;;;;;;;13.02;nan;97931.81;10409496;28;20275;-61
2023/03/09 04:48:24;;;;;;;2.27;2.00;;;;;;;12.68;nan;97965.91;10416581;28;20316;-60
2023/03/09 04:53:28;;;;;;;4.13;2.30;;;;;;;13.08;nan;97956.88;10400316;28;20225;-61
2023/03/09 04:58:30;;;;;;;4.60;2.27;;;;;;;13.52;nan;97945.44;10392104;28;20345;-61
2023/03/09 05:05:31;;;;;;;4.87;2.73;;;;;;;9.52;55.80;97904.56;10310873;27;20855;-64
2023/03/09 05:10:33;;;;;;;5.83;2.60;;;;;;;9.64;56.29;97883.25;10298524;28;20233;-60
2023/03/09 05:15:40;;;;;;;3.10;2.20;;;;;;;11.08;53.25;97836.03;10300681;28;20694;-62
2023/03/09 05:20:42;;;;;;;5.73;2.50;;;;;;;11.05;52.97;97868.63;10312865;28;20244;-61
2023/03/09 05:25:54;;;;;;;4.23;2.90;;;;;;;10.75;53.61;97896.31;10320320;28;20233;-60
2023/03/09 05:30:56;;;;;;;5.53;2.40;;;;;;;11.54;52.08;97869.13;10311081;28;20248;-60
2023/03/09 05:35:57;;;;;;;4.23;2.87;;;;;;;11.02;52.11;97939.50;10311685;28;20347;-64
2023/03/09 05:41:04;;;;;;;5.13;2.47;;;;;;;11.07;52.25;97960.22;10320409;28;20283;-60
2023/03/09 05:46:06;;;;;;;4.03;2.80;;;;;;;10.81;52.47;98002.41;10308057;28;20242;-63
2023/03/09 05:51:08;;;;;;;5.13;2.70;;;;;;;12.17;51.37;97845.91;10322400;28;20234;-61
2023/03/09 05:56:09;;;;;;;4.63;2.30;;;;;;;12.18;50.48;97903.88;10318235;28;20241;-60
2023/03/09 06:01:30;;;;;;;4.70;2.97;;;;;;;11.99;51.15;97948.00;10312669;28;20250;-63
2023/03/09 06:06:32;;;;;;;5.77;3.07;;;;;;;12.95;49.89;97879.34;10308287;28;20248;-64
2023/03/09 06:11:34;;;;;;;9.03;2.60;;;;;;;12.02;50.88;97960.94;10316699;28;20293;-62
2023/03/09 06:16:36;;;;;;;4.43;2.80;;;;;;;12.05;50.83;97933.66;10291262;28;20286;-62
2023/03/09 06:21:38;;;;;;;5.90;2.83;;;;;;;11.93;49.80;98019.47;10286020;28;20325;-60
2023/03/09 06:26:39;;;;;;;6.40;2.80;;;;;;;12.40;50.48;97935.34;10279563;28;20238;-62
2023/03/09 06:31:41;;;;;;;5.43;2.80;;;;;;;11.93;50.08;97998.00;10286647;28;20246;-62
2023/03/09 06:36:43;;;;;;;9.10;3.40;;;;;;;12.09;49.73;97998.31;10289027;28;20620;-62
2023/03/09 06:41:45;;;;;;;7.80;3.73;;;;;;;12.59;49.07;97986.13;10275441;28;20754;-62
2023/03/09 06:46:47;;;;;;;7.80;2.70;;;;;;;12.09;50.26;97991.09;10253753;28;21134;-61
2023/03/09 06:51:49;;;;;;;8.23;3.23;;;;;;;11.66;50.10;98069.22;10281031;28;20230;-63
2023/03/09 06:56:51;;;;;;;4.30;2.30;;;;;;;12.56;49.03;97987.44;10283720;28;20308;-63
2023/03/09 07:01:52;;;;;;;7.03;3.03;;;;;;;12.64;48.63;98011.19;10286276;28;20230;-63
2023/03/09 07:06:54;;;;;;;6.43;2.93;;;;;;;12.17;49.55;98067.66;10298794;28;20325;-63
2023/03/09 07:11:56;;;;;;;9.20;3.23;;;;;;;12.74;48.48;98032.03;10284501;28;20229;-61
2023/03/09 07:16:57;;;;;;;7.97;3.07;;;;;;;11.48;49.52;98158.53;10275405;28;20321;-63
2023/03/09 07:21:59;;;;;;;8.57;3.63;;;;;;;12.19;49.25;98089.69;10287578;28;20636;-62
2023/03/09 07:27:01;;;;;;;8.23;3.00;;;;;;;12.54;48.82;98089.63;10289952;28;20242;-63
2023/03/09 07:32:03;;;;;;;11.90;3.17;;;;;;;12.49;49.91;98097.56;10283314;28;20254;-63
2023/03/09 07:37:04;;;;;;;8.43;2.97;;;;;;;12.71;49.30;98102.28;10275670;28;20230;-62
2023/03/09 07:42:06;;;;;;;6.40;2.63;;;;;;;12.47;50.56;98121.16;10276366;28;20942;-63
2023/03/09 07:47:08;;;;;;;5.90;2.83;;;;;;;13.53;49.24;98092.16;10284191;28;20239;-60
2023/03/09 07:52:10;;;;;;;4.37;2.27;;;;;;;12.20;50.51;98185.19;10279204;28;20627;-63
2023/03/09 07:57:11;;;;;;;6.20;3.03;;;;;;;13.01;50.41;98123.50;10282499;28;20235;-60
2023/03/09 08:02:13;;;;;;;7.70;2.90;;;;;;;12.29;51.13;98196.38;10280416;28;20234;-63
2023/03/09 08:07:15;;;;;;;5.87;2.77;;;;;;;13.94;49.51;98085.50;10278919;28;20246;-61
2023/03/09 08:12:17;;;;;;;10.37;3.20;;;;;;;13.84;48.33;98155.28;10283749;28;20289;-60
2023/03/09 08:17:18;;;;;;;5.17;2.33;;;;;;;12.45;49.50;98243.94;10283259;28;20230;-60
2023/03/09 08:22:20;;;;;;;6.03;2.60;;;;;;;13.04;49.16;98208.13;10277670;28;20249;-62
2023/03/09 08:27:22;;;;;;;6.43;2.60;;;;;;;13.78;48.42;98158.94;10273393;28;20766;-62
2023/03/09 08:32:24;;;;;;;5.60;2.43;;;;;;;13.33;47.70;98219.75;10279587;28;20373;-63
2023/03/09 08:37:26;;;;;;;3.93;2.30;;;;;;;12.83;48.84;98253.38;10273280;28;20312;-62
2023/03/09 08:42:28;;;;;;;4.83;2.17;;;;;;;12.90;48.80;98248.66;10265956;28;20254;-63
2023/03/09 08:47:30;;;;;;;3.47;2.40;;;;;;;13.25;48.39;98212.84;10282365;28;20242;-63
2023/03/09 08:52:37;;;;;;;6.43;2.50;;;;;;;13.49;47.74;98228.88;10282299;28;20281;-62
2023/03/09 08:57:39;;;;;;;4.33;3.23;;;;;;;13.37;48.11;98255.78;10283290;28;20241;-63
2023/03/09 09:02:41;;;;;;;4.47;2.40;;;;;;;14.96;45.58;98214.41;10279350;28;20248;-62
2023/03/09 09:07:43;;;;;;;3.50;2.70;;;;;;;13.03;48.27;98303.19;10270688;28;20266;-62
2023/03/09 09:12:46;;;;;;;4.03;2.70;;;;;;;13.91;46.47;98311.88;10276644;28;20247;-63
2023/03/09 09:17:48;;;;;;;4.27;2.70;;;;;;;13.64;47.50;98293.66;10276278;28;20242;-59
2023/03/09 09:22:49;;;;;;;2.57;2.37;;;;;;;13.53;48.37;98294.53;10270859;28;20633;-63
2023/03/09 09:27:51;;;;;;;4.87;2.57;;;;;;;13.28;48.89;98335.16;10279822;28;20710;-62
2023/03/09 09:32:53;;;;;;;3.03;2.07;;;;;;;13.35;48.34;98353.81;10271863;28;20246;-63
2023/03/09 09:37:56;;;;;;;6.30;3.17;;;;;;;13.96;47.15;98356.88;10274048;28;20365;-63
2023/03/09 09:42:58;;;;;;;7.47;3.00;;;;;;;13.87;47.37;98374.44;10269979;28;20238;-63
2023/03/09 09:48:04;;;;;;;5.60;2.90;;;;;;;15.38;45.61;98324.28;10278221;28;20245;-64
2023/03/09 09:53:16;;;;;;;3.90;2.40;;;;;;;14.74;46.98;98349.00;10281637;28;20844;-61
2023/03/09 09:58:42;;;;;;;5.70;3.17;;;;;;;14.19;48.54;98339.81;10287845;28;20245;-63
2023/03/09 10:03:51;;;;;;;7.87;2.97;;;;;;;14.70;47.58;98332.53;10278694;28;20289;-63
2023/03/09 10:09:22;;;;;;;4.00;2.90;;;;;;;14.36;47.32;98359.47;10284299;28;20230;-63
2023/03/09 10:14:41;;;;;;;4.63;2.80;;;;;;;14.34;46.92;98383.13;10274808;28;20394;-62
2023/03/09 10:19:46;;;;;;;6.40;3.27;;;;;;;14.68;46.49;98352.69;10278589;28;20288;-62
2023/03/09 10:24:53;;;;;;;6.27;3.00;;;;;;;13.71;47.68;98392.16;10249547;28;20256;-63
2023/03/09 10:30:02;;;;;;;7.23;3.17;;;;;;;14.82;46.68;98316.31;10281282;28;20356;-63
2023/03/09 10:35:31;;;;;;;5.47;2.73;;;;;;;14.89;46.17;98333.09;10274049;28;20226;-63
2023/03/09 10:40:42;;;;;;;4.90;2.93;;;;;;;16.17;44.44;98316.75;10278478;28;20691;-63
2023/03/09 10:45:43;;;;;;;5.33;2.00;;;;;;;14.00;46.98;98399.19;10280142;28;20841;-63
2023/03/09 10:51:17;;;;;;;5.87;2.40;;;;;;;15.64;46.14;98328.13;10280540;28;20857;-63
2023/03/09 10:56:25;;;;;;;4.93;2.50;;;;;;;15.27;45.80;98347.59;10278275;28;20231;-64
2023/03/09 11:06:34;;;;;;;3.27;2.70;;;;;;;12.05;51.68;98289.41;10457785;28;20835;-64
2023/03/09 11:11:37;;;;;;;5.67;2.30;;;;;;;12.17;52.33;98271.44;10417331;28;20618;-61
2023/03/09 11:16:50;;;;;;;2.57;1.70;;;;;;;12.00;51.72;98309.66;10420365;28;20243;-61
2023/03/09 11:22:00;;;;;;;3.37;2.00;;;;;;;12.49;50.28;98303.34;10406875;28;20233;-61
2023/03/09 11:27:11;;;;;;;7.67;2.70;;;;;;;13.02;49.95;98277.38;10366025;28;20237;-62
2023/03/09 11:32:13;;;;;;;5.30;2.67;;;;;;;12.26;50.08;98342.47;10378946;28;20312;-61
2023/03/09 11:37:43;;;;;;;6.40;2.33;;;;;;;12.34;49.06;98393.09;10374421;28;20298;-61
2023/03/09 11:42:52;;;;;;;3.67;2.07;;;;;;;13.21;49.30;98308.41;10386335;28;20236;-61
2023/03/09 11:47:56;;;;;;;3.73;3.17;;;;;;;12.87;51.31;98308.22;10418783;28;20254;-64
2023/03/09 11:53:24;;;;;;;4.63;2.30;;;;;;;12.53;51.15;98369.69;10401877;28;20596;-62
2023/03/09 11:58:33;;;;;;;5.27;2.50;;;;;;;13.50;50.88;98321.88;10367811;28;20234;-62
2023/03/09 12:03:43;;;;;;;5.57;2.10;;;;;;;13.41;50.87;98350.16;10374463;28;20356;-62
2023/03/09 12:08:46;;;;;;;8.07;3.20;;;;;;;12.76;52.30;98399.50;10386856;28;20260;-62
2023/03/09 12:13:53;;;;;;;8.10;2.70;;;;;;;13.05;52.87;98347.53;10379499;28;20243;-62
2023/03/09 12:19:06;;;;;;;6.00;2.43;;;;;;;13.47;52.10;98335.78;10350141;28;20240;-63
2023/03/09 12:24:36;;;;;;;6.37;3.17;;;;;;;11.60;55.58;98409.31;10335022;28;20268;-64
2023/03/09 12:29:47;;;;;;;5.53;2.67;;;;;;;12.64;52.85;98378.03;10346219;28;20238;-63
2023/03/09 12:34:51;;;;;;;6.57;3.50;;;;;;;13.42;52.06;98328.44;10345386;28;20230;-63
2023/03/09 12:40:15;;;;;;;7.60;3.10;;;;;;;12.97;52.89;98372.03;10331645;28;20246;-63
2023/03/09 12:45:16;;;;;;;6.37;3.50;;;;;;;13.14;53.37;98325.69;10332973;28;20240;-62
2023/03/09 12:50:42;;;;;;;4.80;2.83;;;;;;;14.35;50.80;98309.38;10340362;28;20241;-63
2023/03/09 12:55:59;;;;;;;3.87;2.60;;;;;;;13.13;52.68;98377.75;10350398;28;20712;-63
2023/03/09 13:01:09;;;;;;;5.60;2.50;;;;;;;13.66;52.17;98315.72;10342619;28;20238;-62
2023/03/09 13:06:27;;;;;;;7.70;3.50;;;;;;;13.66;51.99;98358.72;10350998;28;20720;-62
2023/03/09 13:12:05;;;;;;;6.53;2.77;;;;;;;14.62;50.24;98297.94;10353989;28;20244;-61
2023/03/09 13:17:32;;;;;;;5.37;2.57;;;;;;;13.88;50.32;98358.06;10360433;28;20252;-62
2023/03/09 13:22:37;;;;;;;4.67;2.80;;;;;;;14.94;48.95;98297.34;10375038;28;20252;-61
2023/03/09 13:27:39;;;;;;;6.23;2.37;;;;;;;14.15;49.16;98360.19;10372965;28;20241;-63
2023/03/09 13:33:05;;;;;;;5.80;2.33;;;;;;;14.36;48.98;98356.78;10375556;28;20233;-61
2023/03/09 13:38:20;;;;;;;5.50;2.50;;;;;;;15.25;47.86;98303.09;10375264;28;20252;-65
2023/03/09 13:43:26;;;;;;;6.03;2.50;;;;;;;14.54;49.25;98358.41;10379894;28;20225;-61
2023/03/09 13:48:31;;;;;;;6.93;2.00;;;;;;;14.80;47.41;98347.22;10373659;28;20283;-62
2023/03/09 13:53:32;;;;;;;2.97;1.97;;;;;;;14.70;47.79;98329.03;10369086;28;20405;-61
2023/03/09 13:58:40;;;;;;;5.57;2.43;;;;;;;15.42;46.32;98309.25;10368096;28;20233;-62
2023/03/09 14:03:48;;;;;;;3.57;2.10;;;;;;;15.36;46.36;98309.44;10374449;28;20610;-63
2023/03/09 14:08:52;;;;;;;3.87;2.20;;;;;;;15.51;45.84;98305.03;10369529;28;20241;-62
2023/03/09 14:14:04;;;;;;;4.50;2.40;;;;;;;15.82;44.67;98291.88;10368544;28;20657;-63
2023/03/09 14:19:24;;;;;;;5.90;2.70;;;;;;;16.04;44.53;98302.63;10371253;28;20849;-62
2023/03/09 14:24:32;;;;;;;5.90;2.30;;;;;;;15.50;44.99;98324.97;10369890;28;20240;-63
2023/03/09 14:29:33;;;;;;;6.43;2.53;;;;;;;15.11;44.80;98338.50;10371647;28;20237;-65
2023/03/09 14:34:35;;;;;;;5.10;2.23;;;;;;;16.69;42.97;98282.84;10371295;28;20232;-63
2023/03/09 14:39:38;;;;;;;5.53;2.37;;;;;;;15.34;44.87;98312.38;10370679;28;20237;-62
2023/03/09 14:45:00;;;;;;;4.73;2.30;;;;;;;14.61;44.74;98349.34;10370717;28;20236;-62
2023/03/09 14:50:02;;;;;;;4.43;2.00;;;;;;;15.27;43.76;98344.09;10371523;28;20608;-62
2023/03/09 14:55:12;;;;;;;7.00;3.03;;;;;;;17.14;42.40;98270.66;10372537;28;20743;-61
2023/03/09 15:00:25;;;;;;;5.30;2.93;;;;;;;15.77;43.61;98309.91;10380348;28;20617;-62
2023/03/09 15:05:27;;;;;;;7.37;2.53;;;;;;;17.06;42.62;98255.78;10369818;28;20617;-63
2023/03/09 15:10:30;;;;;;;8.07;3.30;;;;;;;16.88;42.64;98253.50;10363648;28;20794;-62
2023/03/09 15:15:32;;;;;;;13.83;8.50;;;;;;;17.11;42.18;98244.19;10368540;28;20229;-63
2023/03/09 15:20:33;;;;;;;12.17;3.73;;;;;;;14.80;44.04;98275.31;10374489;28;20232;-65
2023/03/09 15:25:47;;;;;;;8.10;3.27;;;;;;;17.43;41.16;98232.38;10366737;28;20233;-63
2023/03/09 15:30:49;;;;;;;8.10;3.13;;;;;;;17.29;41.00;98216.66;10384741;28;20498;-63
2023/03/09 15:35:51;;;;;;;8.80;3.00;;;;;;;17.53;40.50;98213.47;10382815;28;20665;-61
2023/03/09 15:40:52;;;;;;;5.30;2.30;;;;;;;16.98;41.24;98224.66;10383906;28;20240;-62
2023/03/09 15:45:54;;;;;;;6.03;2.43;;;;;;;17.43;40.83;98181.00;10378499;28;20624;-63
2023/03/09 15:50:56;;;;;;;6.63;2.57;;;;;;;16.88;41.03;98216.50;10379983;28;20616;-61
2023/03/09 15:56:03;;;;;;;7.20;3.30;;;;;;;15.38;42.59;98229.16;10393108;28;20240;-62
2023/03/09 16:01:20;;;;;;;7.27;2.50;;;;;;;16.19;41.54;98201.25;10375527;28;20248;-62
2023/03/09 16:06:22;;;;;;;7.23;3.60;;;;;;;16.62;41.12;98185.88;10380665;28;20816;-61
2023/03/09 16:11:24;;;;;;;5.67;2.30;;;;;;;15.65;42.31;98215.69;10375485;28;20228;-61
2023/03/09 16:16:26;;;;;;;10.67;5.07;;;;;;;18.08;39.77;98136.09;10371837;28;20921;-62
2023/03/09 16:21:27;;;;;;;10.43;4.43;;;;;;;15.99;41.56;98183.03;10377033;28;20237;-64
2023/03/09 16:26:29;;;;;;;5.93;2.80;;;;;;;17.09;40.43;98122.00;10390771;28;20232;-61
2023/03/09 16:31:31;;;;;;;8.33;3.50;;;;;;;15.37;41.06;98196.00;10391797;28;20236;-67
2023/03/09 16:36:32;;;;;;;6.00;2.67;;;;;;;16.90;39.93;98141.38;10391165;28;20237;-64
2023/03/09 16:41:34;;;;;;;7.70;2.70;;;;;;;17.08;39.73;98126.59;10373584;28;20710;-60
2023/03/09 16:46:36;;;;;;;7.07;2.77;;;;;;;17.03;39.37;98140.09;10392985;28;20243;-64
2023/03/09 16:51:37;;;;;;;7.50;2.80;;;;;;;17.29;38.98;98130.16;10388989;28;20383;-67
2023/03/09 16:56:39;;;;;;;10.47;3.17;;;;;;;16.60;39.20;98167.25;10381384;28;20325;-66
2023/03/09 17:01:41;;;;;;;8.70;4.30;;;;;;;17.03;38.85;98133.91;10387476;28;20236;-65
2023/03/09 17:06:43;;;;;;;9.67;3.50;;;;;;;16.62;38.61;98167.78;10382659;28;20236;-65
2023/03/09 17:11:44;;;;;;;8.33;3.47;;;;;;;16.86;38.48;98148.41;10383758;28;20228;-65
2023/03/09 17:16:46;;;;;;;6.87;2.97;;;;;;;16.98;38.10;98134.69;10386259;28;20702;-65
2023/03/09 17:21:48;;;;;;;7.43;2.90;;;;;;;15.96;39.29;98149.31;10381432;28;20315;-62
2023/03/09 17:26:50;;;;;;;7.70;3.03;;;;;;;16.86;38.56;98107.91;10387424;28;20233;-61
2023/03/09 17:31:52;;;;;;;5.73;3.03;;;;;;;17.25;37.73;98083.09;10386848;28;20336;-60
2023/03/09 17:36:54;;;;;;;5.97;2.87;;;;;;;15.00;39.39;98115.88;10383430;28;20240;-61
2023/03/09 17:41:56;;;;;;;8.50;3.30;;;;;;;13.67;41.12;98086.19;10374839;28;20239;-60
2023/03/09 17:46:58;;;;;;;6.57;2.90;;;;;;;13.91;40.88;98077.13;10379788;28;20292;-63
2023/03/09 17:51:59;;;;;;;8.47;2.50;;;;;;;13.83;41.24;98071.13;10390627;28;20235;-60
2023/03/09 17:57:02;;;;;;;13.00;3.80;;;;;;;14.57;40.61;98077.16;10387663;28;20588;-62
2023/03/09 18:02:06;;;;;;;6.20;2.73;;;;;;;13.39;42.45;98043.31;10384840;28;20245;-60
2023/03/09 18:07:09;;;;;;;13.40;6.10;;;;;;;13.90;42.12;98022.53;10382292;28;20244;-60
2023/03/09 18:12:20;;;;;;;7.60;3.20;;;;;;;14.04;41.58;98034.56;10381117;28;20260;-65
2023/03/09 18:17:22;;;;;;;6.53;3.27;;;;;;;14.53;41.05;98016.84;10380941;28;20329;-65
2023/03/09 18:22:23;;;;;;;8.37;3.47;;;;;;;16.00;39.68;97950.00;10380420;28;20255;-64
2023/03/09 18:27:25;;;;;;;9.53;3.13;;;;;;;14.77;40.63;98011.97;10379557;28;20235;-65
2023/03/09 18:32:27;;;;;;;8.47;3.47;;;;;;;13.98;41.84;98035.53;10383302;28;20319;-61
2023/03/09 18:37:28;;;;;;;9.23;5.07;;;;;;;14.21;41.50;98014.88;10380053;28;20260;-65
2023/03/09 18:42:30;;;;;;;8.57;3.70;;;;;;;14.78;41.39;97989.34;10378885;28;20236;-62
2023/03/09 18:47:32;;;;;;;8.67;3.70;;;;;;;15.01;40.60;97980.13;10384529;28;20727;-63
2023/03/09 18:52:33;;;;;;;7.73;4.30;;;;;;;13.33;42.37;97998.63;10378378;28;20286;-67
2023/03/09 18:57:35;;;;;;;8.03;3.90;;;;;;;14.40;42.02;97932.75;10377756;28;20239;-64
2023/03/09 19:02:37;;;;;;;5.43;3.00;;;;;;;13.36;42.57;97990.06;10388112;28;20328;-62
2023/03/09 19:07:38;;;;;;;6.57;3.00;;;;;;;12.97;43.32;97942.47;10381345;28;20282;-62
2023/03/09 19:12:40;;;;;;;6.87;3.80;;;;;;;14.18;41.61;97951.63;10381871;28;20821;-62
2023/03/09 19:17:42;;;;;;;9.10;4.43;;;;;;;13.17;42.70;97944.66;10379093;28;20291;-62
2023/03/09 19:22:43;;;;;;;7.63;3.57;;;;;;;12.34;43.12;97947.03;10380858;28;20248;-62
2023/03/09 19:27:49;;;;;;;6.47;3.40;;;;;;;12.93;44.20;97887.66;10389012;28;20735;-62
2023/03/09 19:32:50;;;;;;;7.30;3.23;;;;;;;12.49;43.42;97941.97;10383953;28;20241;-61
2023/03/09 19:37:52;;;;;;;8.03;3.70;;;;;;;13.36;42.98;97930.97;10394055;28;20232;-65
2023/03/09 19:42:54;;;;;;;7.17;3.50;;;;;;;13.31;42.77;97930.91;10391679;28;20755;-63
2023/03/09 19:47:56;;;;;;;7.30;3.73;;;;;;;13.04;43.07;97910.91;10389389;28;20254;-61
2023/03/09 19:52:58;;;;;;;4.13;2.90;;;;;;;12.08;44.19;97895.63;10386215;28;20240;-63
2023/03/09 19:58:00;;;;;;;7.43;3.70;;;;;;;12.89;43.63;97881.13;10385966;28;20232;-65
2023/03/09 20:03:02;;;;;;;7.00;3.10;;;;;;;12.99;43.44;97897.41;10375154;28;20965;-61
2023/03/09 20:08:04;;;;;;;6.50;3.70;;;;;;;14.95;41.11;97850.03;10345527;28;20261;-60
2023/03/09 20:13:06;;;;;;;7.90;3.67;;;;;;;14.87;40.55;97914.34;10341941;28;20616;-65
2023/03/09 20:18:08;;;;;;;6.10;3.20;;;;;;;14.25;40.67;97918.34;10347042;28;20241;-65
2023/03/09 20:23:09;;;;;;;8.23;3.43;;;;;;;13.87;41.70;97883.25;10361679;28;20322;-63
2023/03/09 20:28:12;;;;;;;7.60;3.10;;;;;;;14.24;41.59;97869.13;10384695;28;20267;-63
2023/03/09 20:33:13;;;;;;;5.97;3.27;;;;;;;13.91;41.37;97897.00;10388771;28;20237;-62
2023/03/09 20:38:15;;;;;;;6.03;3.17;;;;;;;12.53;42.76;97913.59;10383938;28;20244;-62
2023/03/09 20:43:17;;;;;;;6.33;3.00;;;;;;;13.03;42.39;97908.47;10380732;28;20233;-62
2023/03/09 20:48:18;;;;;;;6.73;3.90;;;;;;;13.63;42.57;97829.78;10382813;28;20299;-63
2023/03/09 20:53:21;;;;;;;4.83;3.00;;;;;;;14.39;41.41;97849.59;10383645;28;20237;-65
2023/03/09 20:58:23;;;;;;;6.13;3.33;;;;;;;15.20;40.39;97821.63;10387695;28;20224;-65
2023/03/09 21:03:25;;;;;;;6.27;2.83;;;;;;;14.24;41.27;97876.34;10385862;28;20237;-64
2023/03/09 21:08:27;;;;;;;5.03;2.97;;;;;;;12.57;43.09;97838.00;10389466;28;20734;-63
2023/03/09 21:13:28;;;;;;;5.17;3.03;;;;;;;13.94;41.50;97827.38;10383076;28;20579;-62
2023/03/09 21:18:30;;;;;;;5.27;3.50;;;;;;;14.89;40.36;97834.09;10384209;28;20255;-61
2023/03/09 21:23:32;;;;;;;4.73;2.57;;;;;;;13.86;41.18;97841.28;10384777;28;20630;-62
2023/03/09 21:28:35;;;;;;;3.57;2.10;;;;;;;13.88;41.64;97843.72;10388891;28;20229;-63
2023/03/09 21:33:36;;;;;;;6.03;2.70;;;;;;;13.49;40.98;97871.50;10385293;28;20232;-62
2023/03/09 21:38:38;;;;;;;4.57;2.87;;;;;;;13.57;42.66;97795.84;10393110;28;20228;-64
2023/03/09 21:43:40;;;;;;;2.13;1.93;;;;;;;13.42;42.88;97788.41;10386699;28;20708;-62
2023/03/09 21:48:42;;;;;;;5.10;2.60;;;;;;;14.04;41.79;97792.53;10388768;28;20252;-61
2023/03/09 21:53:53;;;;;;;2.67;2.43;;;;;;;13.32;42.14;97851.97;10389021;28;20260;-61
2023/03/09 21:58:56;;;;;;;4.20;2.40;;;;;;;13.29;42.96;97824.53;10381421;28;20241;-61
2023/03/09 22:03:57;;;;;;;3.70;2.53;;;;;;;13.32;44.10;97768.69;10386332;28;20224;-64
2023/03/09 22:09:00;;;;;;;5.87;2.30;;;;;;;12.90;45.14;97796.88;10389747;28;20287;-62
2023/03/09 22:14:04;;;;;;;4.53;3.07;;;;;;;14.04;44.76;97738.75;10392130;28;20852;-64
2023/03/09 22:19:08;;;;;;;3.03;2.00;;;;;;;11.83;46.89;97766.50;10385089;28;20700;-61
2023/03/09 22:24:11;;;;;;;2.87;1.63;;;;;;;12.71;46.58;97764.16;10385477;28;20278;-61
2023/03/09 22:29:13;;;;;;;2.90;2.00;;;;;;;13.24;45.28;97791.38;10386861;28;20229;-64
2023/03/09 22:34:15;;;;;;;2.97;1.60;;;;;;;13.07;46.21;97804.88;10384858;28;20327;-62
2023/03/09 22:39:16;;;;;;;3.23;2.00;;;;;;;12.91;47.46;97780.53;10374958;28;20294;-63
2023/03/09 22:44:18;;;;;;;3.57;2.20;;;;;;;14.04;46.71;97703.78;10367174;28;20245;-64
2023/03/09 22:49:20;;;;;;;2.27;2.07;;;;;;;14.26;46.44;97673.28;10375704;28;20224;-64
2023/03/09 22:54:21;;;;;;;2.13;1.93;;;;;;;12.80;48.01;97694.75;10371590;28;20233;-62
2023/03/09 22:59:23;;;;;;;1.40;1.30;;;;;;;12.26;47.39;97728.34;10373787;28;20298;-62
2023/03/09 23:04:24;;;;;;;2.53;1.77;;;;;;;13.78;46.28;97669.69;10372069;28;20232;-61
2023/03/09 23:09:26;;;;;;;1.53;1.43;;;;;;;13.45;46.40;97679.66;10374453;28;20232;-62
2023/03/09 23:14:30;;;;;;;1.60;1.50;;;;;;;14.18;44.72;97674.59;10391595;28;20233;-62
2023/03/09 23:19:32;;;;;;;1.77;1.50;;;;;;;13.18;46.78;97664.31;10383907;28;20737;-61
2023/03/09 23:24:34;;;;;;;2.93;1.77;;;;;;;13.40;46.09;97683.09;10385647;28;20740;-62
2023/03/09 23:29:35;;;;;;;1.83;1.67;;;;;;;12.72;47.20;97655.75;10383479;28;20703;-62
2023/03/09 23:34:37;;;;;;;1.50;1.40;;;;;;;13.19;45.78;97675.84;10382965;28;20616;-61
2023/03/09 23:39:39;;;;;;;1.60;1.50;;;;;;;13.66;45.71;97619.63;10386881;28;20228;-62
2023/03/09 23:44:40;;;;;;;2.00;1.70;;;;;;;14.33;45.42;97571.63;10381938;28;20276;-61